Terminal Aerodrome Forecast
Issued by NWS Wilmington, NC

Home | Current Version | Previous Version | Text Only | Print | Product List | Glossary On
Versions: 1 2 3 4 5 6 7 8 9 10 11 12 13 14 15 16
051
FTUS42 KILM 282325
TAFILM
TAF
KILM 282325Z 2900/2924 02007KT P6SM BKN120
     FM290600 04003KT P6SM SCT010 BKN080
     FM291400 04007KT P6SM VCSH SCT025 BKN035 PROB30 2918/2924 3SM
      -TSRA BKN025CB=

USA.gov is the U.S. government's official web portal to all federal, state and local government web resources and services.